createdAt,value
2024-03-14T05:04:45.301Z,100.00
2024-03-14T05:07:49.587Z,100.00
2024-03-14T05:10:51.944Z,93.03
2024-03-14T05:13:58.045Z,79.36
2024-03-14T05:17:01.128Z,73.19
2024-03-14T05:20:06.436Z,75.10
2024-03-14T05:27:53.753Z,100.00
2024-03-14T05:31:06.501Z,82.61
2024-03-14T05:34:10.910Z,74.47
2024-03-14T05:37:13.065Z,73.14
2024-03-14T05:40:15.759Z,72.15
2024-03-14T05:43:18.027Z,71.65
2024-03-14T05:46:20.438Z,70.83
2024-03-14T05:49:22.561Z,79.59
2024-03-14T05:52:26.750Z,88.08
2024-03-14T05:55:30.965Z,100.00
2024-03-14T05:58:33.426Z,79.22
2024-03-14T06:01:35.658Z,76.59
2024-03-14T06:04:38.600Z,72.97
2024-03-14T06:07:41.113Z,70.25
2024-03-14T06:10:43.711Z,90.35
2024-03-14T06:13:46.456Z,91.92
2024-03-14T06:16:50.316Z,84.40
2024-03-14T06:19:52.518Z,70.72
2024-03-14T06:22:54.973Z,82.79
2024-03-14T06:25:57.221Z,76.18
2024-03-14T06:29:00.581Z,68.04
2024-03-14T06:32:04.087Z,69.02
2024-03-14T06:35:10.242Z,75.49
2024-03-14T06:38:12.540Z,68.34
2024-03-14T06:41:16.322Z,70.26
2024-03-14T06:44:18.475Z,68.00
2024-03-14T06:47:21.856Z,64.64
2024-03-14T06:50:25.188Z,62.98
2024-03-14T06:53:28.118Z,63.10
2024-03-14T06:56:30.448Z,77.25
2024-03-14T06:59:34.685Z,70.75
2024-03-14T07:02:41.368Z,81.67
2024-03-14T07:05:46.684Z,62.71
2024-03-14T07:08:49.519Z,80.68
2024-03-14T07:11:52.176Z,86.52
2024-03-14T07:14:55.428Z,72.09
2024-03-14T07:18:00.994Z,65.33
2024-03-14T07:21:04.668Z,60.79
2024-03-14T07:24:08.264Z,60.37
2024-03-14T07:27:11.912Z,60.50
2024-03-14T07:30:17.682Z,71.20
2024-03-14T07:33:20.116Z,77.00
2024-03-14T07:36:31.104Z,64.46
2024-03-14T07:39:35.716Z,58.03
2024-03-14T07:42:42.175Z,57.44
2024-03-14T07:45:44.466Z,62.38
2024-03-14T07:48:55.101Z,73.14
2024-03-14T07:51:58.553Z,73.11
2024-03-14T07:55:01.522Z,68.91
2024-03-14T07:58:04.355Z,58.16
2024-03-14T08:01:10.964Z,54.26
2024-03-14T08:04:15.515Z,55.50
2024-03-14T08:07:23.364Z,55.71
2024-03-14T08:10:26.296Z,50.46
2024-03-14T08:13:29.343Z,50.14
2024-03-14T08:16:32.581Z,52.90
2024-03-14T08:19:37.064Z,49.33
2024-03-14T08:22:39.484Z,52.01
2024-03-14T08:25:42.257Z,54.93
2024-03-14T08:28:46.767Z,80.68
2024-03-14T08:31:50.181Z,52.08
2024-03-14T08:34:55.089Z,62.31
2024-03-14T08:37:57.535Z,68.46
2024-03-14T08:41:00.144Z,65.38
2024-03-14T08:44:06.233Z,66.24
2024-03-14T08:47:09.417Z,59.61
2024-03-14T08:50:12.025Z,52.90
2024-03-14T08:53:16.514Z,64.95
2024-03-14T08:56:20.796Z,72.34
2024-03-14T08:59:23.677Z,64.43
2024-03-14T09:02:28.801Z,53.50
2024-03-14T09:05:32.801Z,51.62
2024-03-14T09:08:37.191Z,50.07
2024-03-14T09:11:40.558Z,50.22
2024-03-14T09:14:43.908Z,50.33
2024-03-14T09:17:49.744Z,72.42
2024-03-14T09:20:56.473Z,68.64
2024-03-14T09:23:59.462Z,61.70
2024-03-14T09:27:05.945Z,59.57
2024-03-14T09:30:10.499Z,53.91
2024-03-14T09:33:13.511Z,50.14
2024-03-14T09:36:16.205Z,57.34
2024-03-14T09:39:20.367Z,51.57
2024-03-14T09:42:22.958Z,69.62
2024-03-14T09:45:25.909Z,52.02
2024-03-14T09:48:31.586Z,53.21
2024-03-14T09:51:34.409Z,49.58
2024-03-14T09:54:37.240Z,70.56
2024-03-14T09:57:40.259Z,56.41
2024-03-14T10:00:42.843Z,50.46
2024-03-14T10:03:45.348Z,51.00
2024-03-14T10:06:47.720Z,51.20
2024-03-14T10:09:53.624Z,52.24
2024-03-14T10:12:58.587Z,58.45
2024-03-14T10:16:01.832Z,54.80
2024-03-14T10:19:05.552Z,54.58
2024-03-14T10:22:09.225Z,57.90
2024-03-14T10:25:18.006Z,56.58
2024-03-14T10:28:21.588Z,58.57
2024-03-14T10:31:23.845Z,45.00
2024-03-14T10:34:26.380Z,55.21
2024-03-14T10:37:32.222Z,73.42
2024-03-14T10:40:35.444Z,58.21
2024-03-14T10:43:43.490Z,46.88
2024-03-14T10:46:51.476Z,44.97
2024-03-14T10:49:55.544Z,59.32
2024-03-14T10:53:01.807Z,45.94
2024-03-14T10:56:07.382Z,57.13
2024-03-14T10:59:10.865Z,49.29
2024-03-14T11:02:15.422Z,52.20
2024-03-14T11:05:24.114Z,56.51
2024-03-14T11:08:27.462Z,50.19
2024-03-14T11:11:33.114Z,50.32
2024-03-14T11:14:41.668Z,60.02
2024-03-14T11:17:46.174Z,53.38
2024-03-14T11:20:53.200Z,53.59
2024-03-14T11:23:57.593Z,54.11
2024-03-14T11:27:02.922Z,54.19
2024-03-14T11:30:16.876Z,44.68
2024-03-14T11:33:20.480Z,52.65
2024-03-14T11:36:23.336Z,47.83
2024-03-14T11:39:27.624Z,56.68
2024-03-14T11:42:30.256Z,43.58
2024-03-14T11:45:33.255Z,43.06
2024-03-14T11:48:38.486Z,45.15
2024-03-14T11:51:42.880Z,43.63
2024-03-14T11:54:46.171Z,55.80
2024-03-14T11:57:49.193Z,50.22
2024-03-14T12:00:55.114Z,42.81
2024-03-14T12:03:58.801Z,55.05
2024-03-14T12:07:04.458Z,55.29
2024-03-14T12:10:10.841Z,44.92
2024-03-14T12:13:15.492Z,41.67
2024-03-14T12:16:19.752Z,43.28
2024-03-14T12:19:22.190Z,47.90
2024-03-14T12:22:24.904Z,50.67
2024-03-14T12:25:27.148Z,51.43
2024-03-14T12:28:32.347Z,39.01
2024-03-14T12:31:35.645Z,38.26
2024-03-14T12:34:43.187Z,41.64
2024-03-14T12:37:49.667Z,39.58
2024-03-14T12:40:59.209Z,38.93
2024-03-14T12:44:01.980Z,38.38
2024-03-14T12:47:04.593Z,39.16
2024-03-14T12:50:29.354Z,42.52
2024-03-14T12:53:33.727Z,42.45
2024-03-14T12:56:36.495Z,39.68
2024-03-14T12:59:39.326Z,40.39
2024-03-14T13:02:50.950Z,39.47
2024-03-14T13:06:00.490Z,39.94
2024-03-14T13:09:23.500Z,49.33
2024-03-14T13:12:26.032Z,39.31
2024-03-14T13:15:28.232Z,39.87
2024-03-14T13:18:31.153Z,40.77
2024-03-14T13:21:51.867Z,39.66
2024-03-14T13:24:56.032Z,41.98
2024-03-14T13:28:00.356Z,44.46
2024-03-14T13:31:03.089Z,46.61
2024-03-14T13:34:05.532Z,41.39
2024-03-14T13:37:08.219Z,40.40
2024-03-14T13:43:24.638Z,40.17
2024-03-14T13:46:32.612Z,41.58
2024-03-14T13:49:38.972Z,41.28
2024-03-14T13:52:41.720Z,40.99
2024-03-14T13:55:48.636Z,41.60
2024-03-14T13:58:53.359Z,43.95
2024-03-14T14:01:55.894Z,42.09
2024-03-14T14:04:58.407Z,44.16
2024-03-14T14:08:01.435Z,42.65
2024-03-14T14:11:05.124Z,41.70
2024-03-14T14:14:15.901Z,42.49
2024-03-14T14:17:18.336Z,41.02
2024-03-14T14:20:22.589Z,41.61
2024-03-14T14:23:25.007Z,43.24
2024-03-14T14:26:27.161Z,41.21
2024-03-14T14:29:30.494Z,54.39
2024-03-14T14:32:32.704Z,42.26
2024-03-14T14:35:37.259Z,42.45
2024-03-14T14:38:39.933Z,43.17
2024-03-14T14:41:42.490Z,43.40
2024-03-14T14:44:45.013Z,43.29
2024-03-14T14:47:47.594Z,44.70
2024-03-14T14:50:50.003Z,44.68
2024-03-14T14:53:53.374Z,42.12
2024-03-14T14:56:55.671Z,42.97
2024-03-14T14:59:58.863Z,44.34
2024-03-14T15:03:03.740Z,52.73
2024-03-14T15:06:07.188Z,44.14
2024-03-14T15:09:10.406Z,46.31
2024-03-14T15:12:13.077Z,42.84
2024-03-14T15:15:17.456Z,42.86
2024-03-14T15:18:20.168Z,42.76
2024-03-14T15:21:22.732Z,41.76
2024-03-14T15:24:28.318Z,44.48
2024-03-14T15:27:31.080Z,43.15
2024-03-14T15:30:35.582Z,41.45
2024-03-14T15:33:38.051Z,41.05
2024-03-14T15:36:40.787Z,41.56
2024-03-14T15:39:46.035Z,41.62
2024-03-14T15:42:49.175Z,43.21
2024-03-14T15:45:53.011Z,43.06
2024-03-14T15:48:56.871Z,46.87
2024-03-14T15:51:59.952Z,50.16
2024-03-14T15:55:03.044Z,42.17
2024-03-14T15:58:05.302Z,41.41
2024-03-14T16:01:09.081Z,44.17
2024-03-14T16:04:13.060Z,42.32
2024-03-14T16:07:15.578Z,41.88
2024-03-14T16:10:18.682Z,42.66
2024-03-14T16:13:21.071Z,42.69
2024-03-14T16:16:23.799Z,42.89
2024-03-14T16:19:27.056Z,41.48
2024-03-14T16:22:30.892Z,42.43
2024-03-14T16:25:37.280Z,43.22
2024-03-14T16:28:42.866Z,44.27
2024-03-14T16:31:46.914Z,42.29
2024-03-14T16:34:50.310Z,42.35
2024-03-14T16:37:52.749Z,42.51
2024-03-14T16:40:55.251Z,42.70
2024-03-14T16:43:59.517Z,43.38
2024-03-14T16:47:01.971Z,43.59
2024-03-14T16:50:04.373Z,43.15
2024-03-14T16:53:08.101Z,43.52
